Terminal Aerodrome Forecast
Issued by NWS

Home | Current Version | Previous Version | Text Only | Print | Product List | Glossary On
Versions: 1 2 3 4 5 6 7 8 9 10 11 12 13 14 15 16 17 18
000
FTUS46 KEKA 271120
TAFUKI
TAF
KUKI 271120Z 2712/2812 16004KT P6SM OVC009
     FM271700 14005KT P6SM SKC
     FM280900 14006KT P6SM BKN010=

USA.gov is the U.S. government's official web portal to all federal, state and local government web resources and services.